September 26, 2022

Time Code Weather Temp. Visibility Ceiling Wind METAR/SPECI
00:50
V
10 °C 10 km+ - 240° 240° 4 kt METAR EDDL 252250Z AUTO 24004KT CAVOK 10/08 Q1011 NOSIG
00:20
V
10 °C 10 km+ - 220° 220° 4 kt METAR EDDL 252220Z AUTO 22004KT CAVOK 10/08 Q1011 NOSIG

September 25, 2022

Time Code Weather Temp. Visibility Ceiling Wind METAR/SPECI
23:50
V
10 °C 10 km+ - 230° 230° 6 kt METAR EDDL 252150Z AUTO 23006KT CAVOK 10/08 Q1011 NOSIG
23:20
V
9 °C 10 km+ - Var Var 2 kt METAR EDDL 252120Z AUTO VRB02KT CAVOK 09/08 Q1012 NOSIG
22:50
V
9 °C 10 km+ - 240° 240° 3 kt METAR EDDL 252050Z AUTO 24003KT 9999 FEW001 09/08 Q1012 NOSIG
22:20
V
10 °C 10 km+ - Var Var 2 kt METAR EDDL 252020Z AUTO VRB02KT 9999 FEW001 10/08 Q1012 NOSIG
21:50
V
12 °C 10 km+ - 250° 250° 2 kt METAR EDDL 251950Z AUTO 25002KT CAVOK 12/08 Q1012 NOSIG
21:20
V
12 °C 10 km+ - Var Var 1 kt METAR EDDL 251920Z AUTO VRB01KT CAVOK 12/08 Q1012 NOSIG
20:50
V
13 °C 10 km+ - Var Var 1 kt METAR EDDL 251850Z AUTO VRB01KT CAVOK 13/08 Q1012 NOSIG
20:20
V
13 °C 10 km+ - 330° 330° 3 kt METAR EDDL 251820Z AUTO 33003KT CAVOK 13/07 Q1013
19:50
V
14 °C 10 km+ - 310° 310° 4 kt METAR EDDL 251750Z AUTO 31004KT CAVOK 14/07 Q1013 NOSIG
19:20
V
15 °C 10 km+ - 310° 310° 5 kt METAR EDDL 251720Z AUTO 31005KT CAVOK 15/07 Q1013 NOSIG
18:50
V
16 °C 10 km+ - 320° 320° 7 kt METAR EDDL 251650Z AUTO 32007KT CAVOK 16/06 Q1013 NOSIG
18:20
V
15 °C 10 km+ - 320° 320° 8 kt METAR EDDL 251620Z AUTO 32008KT CAVOK 15/08 Q1013 NOSIG
17:50
V
16 °C 10 km+ - 350° 350° 5 kt METAR EDDL 251550Z AUTO 35005KT 320V030 9999 FEW045 16/07 Q1012 NOSIG
17:20
V
16 °C 10 km+ - 320° 320° 6 kt METAR EDDL 251520Z AUTO 32006KT 9999 FEW046 16/07 Q1013 NOSIG
16:50
V
16 °C 10 km+ - 310° 310° 7 kt METAR EDDL 251450Z AUTO 31007KT 260V330 9999 FEW045 16/07 Q1013 NOSIG
16:20
V
18 °C 10 km+ - 290° 290° 6 kt METAR EDDL 251420Z AUTO 29006KT 240V340 9999 FEW047 18/07 Q1013 NOSIG
15:50
V
17 °C 10 km+ - 350° 350° 8 kt METAR EDDL 251350Z AUTO 35008KT 320V020 9999 FEW047 17/06 Q1013 NOSIG
15:20
V
18 °C 10 km+ - 330° 330° 7 kt METAR EDDL 251320Z AUTO 33007KT 310V010 CAVOK 18/06 Q1013 NOSIG
14:50
V
17 °C 10 km+ - 350° 350° 5 kt METAR EDDL 251250Z AUTO 35005KT 280V030 9999 FEW045 17/07 Q1014 NOSIG
14:20
V
16 °C 10 km+ - 350° 350° 8 kt METAR EDDL 251220Z AUTO 35008KT 9999 FEW039 16/07 Q1014 NOSIG
13:50
V
17 °C 10 km+ - 350° 350° 7 kt METAR EDDL 251150Z AUTO 35007KT 320V020 9999 FEW036 17/07 Q1014 NOSIG
13:20
V
16 °C 10 km+ - 350° 350° 8 kt METAR EDDL 251120Z AUTO 35008KT 9999 FEW035 16/08 Q1014 NOSIG
12:50
V
15 °C 10 km+ - 340° 340° 9 kt METAR EDDL 251050Z AUTO 34009KT 290V020 9999 SCT033 SCT039 15/07 Q1014 NOSIG
12:20
V
16 °C 10 km+ 3,900 ft 360° 360° 9 kt METAR EDDL 251020Z AUTO 36009KT 320V030 9999 SCT031 BKN039 16/08 Q1015
11:50
V
16 °C 10 km+ - 010° 010° 8 kt METAR EDDL 250950Z AUTO 01008KT 330V030 9999 SCT029 SCT035 16/08 Q1015
11:20
V
15 °C 10 km+ - 010° 010° 8 kt METAR EDDL 250920Z AUTO 01008KT 330V040 9999 FEW024 SCT029 15/08 Q1015 NOSIG
10:50
V
14 °C 10 km+ - 010° 010° 8 kt METAR EDDL 250850Z AUTO 01008KT 340V040 9999 SCT020 14/09 Q1015 NOSIG
10:20
V
14 °C 10 km+ - 340° 340° 7 kt METAR EDDL 250820Z AUTO 34007KT 9999 FEW017 14/10 Q1015 NOSIG
09:50
V
13 °C 10 km+ - 330° 330° 4 kt METAR EDDL 250750Z AUTO 33004KT CAVOK 13/10 Q1015
09:20
V
12 °C 10 km+ - 340° 340° 5 kt METAR EDDL 250720Z AUTO 34005KT CAVOK 12/10 Q1015 NOSIG
08:50
V
12 °C 10 km+ - 340° 340° 3 kt METAR EDDL 250650Z AUTO 34003KT CAVOK 12/10 Q1014 NOSIG
08:20
V
12 °C 10 km+ - 350° 350° 4 kt METAR EDDL 250620Z AUTO 35004KT 320V030 CAVOK 12/10 Q1014 NOSIG
07:50
V
11 °C 10 km+ - 340° 340° 4 kt METAR EDDL 250550Z AUTO 34004KT CAVOK 11/09 Q1014 NOSIG
07:20
V
12 °C 10 km+ - 360° 360° 5 kt METAR EDDL 250520Z AUTO 36005KT CAVOK 12/10 Q1014 NOSIG
06:50
V
12 °C 10 km+ - 350° 350° 5 kt METAR EDDL 250450Z AUTO 35005KT CAVOK 12/10 Q1014 NOSIG
06:20
V
12 °C 10 km+ - 360° 360° 6 kt METAR EDDL 250420Z AUTO 36006KT 9999 FEW046 12/10 Q1014 NOSIG
05:50
V
12 °C 10 km+ - 360° 360° 7 kt METAR EDDL 250350Z AUTO 36007KT 9999 FEW031 12/10 Q1014 NOSIG
05:20
M
13 °C 10 km+ 2,800 ft 360° 360° 8 kt METAR EDDL 250320Z AUTO 36008KT 9999 -DZ BKN028 OVC035 13/10 Q1014 NOSIG
04:50
V
13 °C 10 km+ 3,300 ft 360° 360° 7 kt METAR EDDL 250250Z AUTO 36007KT 9999 FEW026 OVC033 13/10 Q1014 TEMPO BKN012
04:20
V
13 °C 10 km+ 3,100 ft 010° 010° 9 kt METAR EDDL 250220Z AUTO 01009KT 9999 -DZ FEW018 BKN031 OVC048 13/10 Q1014 TEMPO BKN012
03:50
M
13 °C 10 km+ 1,400 ft 010° 010° 8 kt METAR EDDL 250150Z AUTO 01008KT 9999 BKN014 BKN019 OVC025 13/11 Q1014 TEMPO 4000 BR BKN010
03:20
M
13 °C 10 km+ 2,300 ft 010° 010° 9 kt METAR EDDL 250120Z AUTO 01009KT 9999 FEW012 SCT017 OVC023 13/11 Q1014 TEMPO BKN012
02:50
M
13 °C 10 km+ 1,900 ft 010° 010° 8 kt METAR EDDL 250050Z AUTO 01008KT 9999 OVC019 13/11 Q1014 TEMPO BKN012
02:20
M
13 °C 10 km+ 1,500 ft 010° 010° 8 kt METAR EDDL 250020Z AUTO 01008KT 9999 OVC015 13/11 Q1014 TEMPO 4000 -DZRA BKN009
01:50
M
13 °C 10 km+ 1,300 ft 360° 360° 7 kt METAR EDDL 242350Z AUTO 36007KT 9999 OVC013 13/11 Q1014 TEMPO 4000 -DZRA BKN009
01:20
M
13 °C 10 km+ 1,300 ft 010° 010° 8 kt METAR EDDL 242320Z AUTO 01008KT 9999 BKN013 13/11 Q1014 TEMPO 4000 -DZRA BKN008
00:50
V
13 °C 10 km+ 4,600 ft 360° 360° 7 kt METAR EDDL 242250Z AUTO 36007KT 9999 SCT013 BKN046 13/12 Q1014 TEMPO BKN012
00:20
V
13 °C 10 km+ 4,600 ft 360° 360° 7 kt METAR EDDL 242220Z AUTO 36007KT 9999 FEW015 BKN046 13/12 Q1014 BECMG BKN010

September 24, 2022

Time Code Weather Temp. Visibility Ceiling Wind METAR/SPECI
23:50
V
13 °C 10 km+ 3,300 ft 360° 360° 5 kt METAR EDDL 242150Z AUTO 36005KT 9999 SCT016 BKN033 BKN044 13/12 Q1014 NOSIG
23:20
V
13 °C 10 km+ 3,100 ft 350° 350° 5 kt METAR EDDL 242120Z AUTO 35005KT 9999 BKN031 BKN038 13/12 Q1014 NOSIG
22:50
V
14 °C 10 km+ 3,000 ft 330° 330° 4 kt METAR EDDL 242050Z AUTO 33004KT 9999 FEW015 BKN030 14/11 Q1014 TEMPO BKN010
22:20
V
14 °C 10 km+ 3,100 ft 340° 340° 4 kt METAR EDDL 242020Z AUTO 34004KT 9999 SCT014 BKN031 14/12 Q1014 BECMG BKN010
21:50
V
14 °C 10 km+ 4,400 ft 340° 340° 3 kt METAR EDDL 241950Z AUTO 34003KT 9999 FEW013 BKN044 14/12 Q1013 NOSIG
21:20
V
14 °C 10 km+ 3,800 ft 020° 020° 4 kt METAR EDDL 241920Z AUTO 02004KT 9999 SCT025 BKN038 14/11 Q1014 TEMPO BKN014
20:50
V
14 °C 10 km+ 3,800 ft 360° 360° 5 kt METAR EDDL 241850Z AUTO 36005KT 9999 FEW016 BKN038 14/12 Q1013 TEMPO BKN014
20:20
M
15 °C 10 km+ 2,000 ft 020° 020° 5 kt METAR EDDL 241820Z AUTO 02005KT 9999 BKN020 BKN033 15/12 Q1013 TEMPO BKN014
19:50
V
15 °C 10 km+ - 010° 010° 6 kt METAR EDDL 241750Z AUTO 01006KT 9999 SCT018 15/12 Q1013 TEMPO BKN014
19:20
V
15 °C 10 km+ - 360° 360° 6 kt METAR EDDL 241720Z AUTO 36006KT 9999 FEW020 15/12 Q1013 NOSIG
18:50
V
15 °C 10 km+ - 020° 020° 4 kt METAR EDDL 241650Z AUTO 02004KT 9999 -DZ NSC 15/13 Q1013 NOSIG
18:20
V
15 °C 10 km+ - 020° 020° 5 kt METAR EDDL 241620Z AUTO 02005KT CAVOK 15/12 Q1012 NOSIG
17:50
V
16 °C 10 km+ - 030° 030° 4 kt METAR EDDL 241550Z AUTO 03004KT 9999 -RA NSC 16/12 Q1012 NOSIG
17:20
V
16 °C 10 km+ 4,600 ft 020° 020° 4 kt METAR EDDL 241520Z AUTO 02004KT 9999 BKN046 16/12 Q1012 NOSIG
16:50
V
16 °C 10 km+ 4,600 ft 030° 030° 4 kt METAR EDDL 241450Z AUTO 03004KT 9999 BKN046 16/12 Q1012 NOSIG
16:20
V
16 °C 10 km+ - 020° 020° 5 kt METAR EDDL 241420Z AUTO 02005KT 9999 -DZ NSC 16/12 Q1012 NOSIG
15:50
V
16 °C 10 km+ - 020° 020° 5 kt METAR EDDL 241350Z AUTO 02005KT 9999 FEW033 16/11 Q1012 NOSIG
15:20
V
16 °C 10 km+ - 360° 360° 5 kt METAR EDDL 241320Z AUTO 36005KT 330V040 CAVOK 16/11 Q1012 NOSIG
14:50
V
16 °C 10 km+ - 030° 030° 6 kt METAR EDDL 241250Z AUTO 03006KT 9999 FEW030 16/11 Q1012 NOSIG
14:20
V
16 °C 10 km+ - 340° 340° 6 kt METAR EDDL 241220Z AUTO 34006KT 9999 SCT026 16/11 Q1013 NOSIG
13:50
M
16 °C 10 km+ 2,600 ft 280° 280° 5 kt METAR EDDL 241150Z AUTO 28005KT 240V310 9999 -SHRA BKN026 BKN032 OVC047 FEW///CB 16/11 Q1013 NOSIG
13:20
M
17 °C 10 km+ 2,900 ft 220° 220° 3 kt METAR EDDL 241120Z AUTO 22003KT 160V280 9999 -SHRA BKN029 BKN044 FEW///TCU 17/11 Q1013 NOSIG
12:50
V
17 °C 10 km+ 3,000 ft 270° 270° 3 kt METAR EDDL 241050Z AUTO 27003KT 230V330 9999 BKN030 17/11 Q1013 NOSIG
12:20
V
17 °C 10 km+ - 240° 240° 3 kt METAR EDDL 241020Z AUTO 24003KT 160V300 9999 FEW027 17/10 Q1013 NOSIG
11:50
V
16 °C 10 km+ - 170° 170° 4 kt METAR EDDL 240950Z AUTO 17004KT 110V250 CAVOK 16/11 Q1013 NOSIG
11:20
V
16 °C 10 km+ - 150° 150° 5 kt METAR EDDL 240920Z AUTO 15005KT CAVOK 16/11 Q1013 NOSIG
10:50
V
15 °C 10 km+ - 130° 130° 4 kt METAR EDDL 240850Z AUTO 13004KT 100V180 CAVOK 15/11 Q1013 NOSIG
10:20
V
15 °C 10 km+ - 160° 160° 4 kt METAR EDDL 240820Z AUTO 16004KT 9999 -RADZ FEW043 15/11 Q1013 NOSIG
09:50
V
14 °C 10 km+ - 160° 160° 4 kt METAR EDDL 240750Z AUTO 16004KT 130V190 9999 SCT037 14/11 Q1013 NOSIG
09:20
V
14 °C 10 km+ 3,800 ft 140° 140° 3 kt METAR EDDL 240720Z AUTO 14003KT 120V180 9999 BKN038 OVC047 14/11 Q1012 NOSIG
08:50
V
13 °C 10 km+ 4,200 ft 160° 160° 4 kt METAR EDDL 240650Z AUTO 16004KT 130V190 9999 BKN042 13/11 Q1012 NOSIG
08:20
V
13 °C 10 km+ - 150° 150° 3 kt METAR EDDL 240620Z AUTO 15003KT 120V190 9999 -RA SCT045 13/11 Q1012 NOSIG
07:50
V
13 °C 10 km+ - 160° 160° 4 kt METAR EDDL 240550Z AUTO 16004KT CAVOK 13/10 Q1012 NOSIG
07:20
V
13 °C 10 km+ - 170° 170° 5 kt METAR EDDL 240520Z AUTO 17005KT CAVOK 13/10 Q1012 NOSIG
06:50
V
13 °C 10 km+ - 160° 160° 7 kt METAR EDDL 240450Z AUTO 16007KT CAVOK 13/10 Q1012 NOSIG
06:20
V
13 °C 10 km+ - 150° 150° 5 kt METAR EDDL 240420Z AUTO 15005KT 9999 FEW043 13/10 Q1012 NOSIG
05:50
V
12 °C 10 km+ - 150° 150° 4 kt METAR EDDL 240350Z AUTO 15004KT CAVOK 12/10 Q1012 NOSIG
05:20
V
12 °C 10 km+ - 140° 140° 3 kt METAR EDDL 240320Z AUTO 14003KT CAVOK 12/11 Q1012 NOSIG
04:50
V
13 °C 10 km+ - 160° 160° 3 kt METAR EDDL 240250Z AUTO 16003KT 9999 FEW042 13/11 Q1012 NOSIG
04:20
V
13 °C 10 km+ - 170° 170° 3 kt METAR EDDL 240220Z AUTO 17003KT 9999 SCT036 13/11 Q1013 NOSIG
03:50
V
13 °C 10 km+ - 220° 220° 2 kt METAR EDDL 240150Z AUTO 22002KT 9999 SCT033 13/11 Q1013 NOSIG
03:20
V
13 °C 10 km+ 3,200 ft 220° 220° 3 kt METAR EDDL 240120Z AUTO 22003KT 9999 FEW024 BKN032 13/11 Q1013 NOSIG
02:50
V
13 °C 10 km+ 3,200 ft 230° 230° 3 kt METAR EDDL 240050Z AUTO 23003KT 9999 BKN032 13/11 Q1013 NOSIG
02:20
V
14 °C 10 km+ - 240° 240° 3 kt METAR EDDL 240020Z AUTO 24003KT 9999 FEW034 14/11 Q1013 NOSIG
01:50
V
14 °C 10 km+ 3,300 ft 210° 210° 2 kt METAR EDDL 232350Z AUTO 21002KT 9999 OVC033 14/11 Q1013 NOSIG
01:20
V
14 °C 10 km+ 3,300 ft 230° 230° 4 kt METAR EDDL 232320Z AUTO 23004KT 9999 BKN033 14/11 Q1014 NOSIG
00:50
V
14 °C 10 km+ 3,200 ft 240° 240° 5 kt METAR EDDL 232250Z AUTO 24005KT 9999 BKN032 14/10 Q1014 BECMG 18005KT
00:20
V
14 °C 10 km+ 3,200 ft 170° 170° 3 kt METAR EDDL 232220Z AUTO 17003KT 150V230 9999 BKN032 14/10 Q1014 NOSIG

September 23, 2022

Time Code Weather Temp. Visibility Ceiling Wind METAR/SPECI
23:50
V
14 °C 10 km+ 3,800 ft 160° 160° 4 kt METAR EDDL 232150Z AUTO 16004KT 9999 SCT030 BKN038 14/10 Q1014 NOSIG
23:20
V
14 °C 10 km+ - 150° 150° 4 kt METAR EDDL 232120Z AUTO 15004KT 110V180 9999 FEW001 14/10 Q1014 NOSIG
22:50
V
14 °C 10 km+ - Var Var 2 kt METAR EDDL 232050Z AUTO VRB02KT 9999 FEW001 14/10 Q1014 NOSIG
22:20
V
14 °C 10 km+ - Var Var 2 kt METAR EDDL 232020Z AUTO VRB02KT 9999 FEW001 14/09 Q1014 NOSIG
21:50
V
15 °C 10 km+ - 200° 200° 3 kt METAR EDDL 231950Z AUTO 20003KT 170V280 CAVOK 15/09 Q1014 NOSIG
21:20
V
15 °C 10 km+ - 210° 210° 5 kt METAR EDDL 231920Z AUTO 21005KT 9999 SCT035 15/09 Q1014 NOSIG
20:50
V
14 °C 10 km+ - 220° 220° 4 kt METAR EDDL 231850Z AUTO 22004KT 170V260 9999 FEW036 14/09 Q1014 NOSIG
20:20
V
15 °C 10 km+ - 230° 230° 5 kt METAR EDDL 231820Z AUTO 23005KT CAVOK 15/08 Q1014 NOSIG
19:50
V
16 °C 10 km+ - 230° 230° 6 kt METAR EDDL 231750Z AUTO 23006KT CAVOK 16/08 Q1014 NOSIG
19:20
V
16 °C 10 km+ - 230° 230° 6 kt METAR EDDL 231720Z AUTO 23006KT CAVOK 16/08 Q1014 NOSIG
18:50
V
16 °C 10 km+ - 220° 220° 6 kt METAR EDDL 231650Z AUTO 22006KT CAVOK 16/09 Q1014 NOSIG
18:20
V
16 °C 10 km+ - 230° 230° 6 kt METAR EDDL 231620Z AUTO 23006KT CAVOK 16/08 Q1014 NOSIG
17:50
V
17 °C 10 km+ - 220° 220° 6 kt METAR EDDL 231550Z AUTO 22006KT CAVOK 17/08 Q1014 NOSIG
17:20
V
17 °C 10 km+ - 220° 220° 6 kt METAR EDDL 231520Z AUTO 22006KT CAVOK 17/08 Q1014 NOSIG
16:50
V
17 °C 10 km+ - 220° 220° 7 kt METAR EDDL 231450Z AUTO 22007KT CAVOK 17/08 Q1015 NOSIG
Older data

We and third parties follow your internet behavior on our website with cookies. If you continue, we assume you agree with our cookie policy. Learn more